Time;durP1;ratioP1;P1;durP2;ratioP2;P2;SDS_P1;SDS_P2;PMS_P1;PMS_P2;Temp;Humidity;BMP_temperature;BMP_pressure;BME280_temperature;BME280_humidity;BME280_pressure;Samples;Min_cycle;Max_cycle;Signal;HPM_P1;HPM_P2
2021/03/14 00:00:57;;;;;;;16.52;8.70;;;4.00;99.90;;;;;;4986156;28;20050;-77
2021/03/14 00:03:26;;;;;;;13.38;8.82;;;4.00;99.90;;;;;;4986270;28;20439;-78
2021/03/14 00:05:53;;;;;;;14.15;10.85;;;4.00;99.90;;;;;;5002052;28;20073;-78
2021/03/14 00:08:25;;;;;;;13.95;10.75;;;4.10;99.90;;;;;;4985427;28;20042;-79
2021/03/14 00:11:00;;;;;;;17.20;10.63;;;4.10;99.90;;;;;;4986363;28;20077;-78
2021/03/14 00:13:29;;;;;;;12.40;11.10;;;4.00;99.90;;;;;;4986529;28;20043;-78
2021/03/14 00:15:56;;;;;;;11.23;10.07;;;4.00;99.90;;;;;;4968502;28;20142;-77
2021/03/14 00:18:27;;;;;;;19.00;11.88;;;4.10;99.90;;;;;;4974515;28;20561;-79
2021/03/14 00:20:54;;;;;;;17.05;11.75;;;4.00;99.90;;;;;;4953499;28;20141;-78
2021/03/14 00:23:21;;;;;;;15.13;11.20;;;4.00;99.90;;;;;;4985014;28;20076;-79
2021/03/14 00:25:48;;;;;;;10.68;9.60;;;4.00;99.90;;;;;;5001475;28;20511;-78
2021/03/14 00:28:16;;;;;;;15.73;11.70;;;3.90;99.90;;;;;;4986023;28;20145;-78
2021/03/14 00:30:43;;;;;;;18.95;11.32;;;3.90;99.90;;;;;;4969843;28;20042;-79
2021/03/14 00:33:10;;;;;;;11.70;10.50;;;3.90;99.90;;;;;;4973021;28;20050;-78
2021/03/14 00:35:36;;;;;;;18.05;11.07;;;3.80;99.90;;;;;;4989704;28;20680;-78
2021/03/14 00:38:03;;;;;;;16.00;10.88;;;3.80;99.90;;;;;;4986719;28;20053;-78
2021/03/14 00:40:30;;;;;;;15.10;11.13;;;3.80;99.90;;;;;;5019369;28;20295;-78
2021/03/14 00:42:58;;;;;;;14.00;10.82;;;3.80;99.90;;;;;;4989261;28;20495;-79
2021/03/14 00:45:33;;;;;;;11.10;9.95;;;3.80;99.90;;;;;;4988214;28;20062;-78
2021/03/14 00:48:04;;;;;;;13.73;10.75;;;3.70;99.90;;;;;;4988924;28;20046;-79
2021/03/14 00:50:39;;;;;;;16.92;11.23;;;3.80;99.90;;;;;;5005015;28;20558;-79
2021/03/14 00:53:10;;;;;;;15.60;9.88;;;3.70;99.90;;;;;;4957076;28;20470;-78
2021/03/14 00:55:41;;;;;;;15.13;11.30;;;3.70;99.90;;;;;;4964313;28;20062;-78
2021/03/14 00:58:07;;;;;;;15.57;9.77;;;3.70;99.90;;;;;;4986654;28;20605;-79
2021/03/14 01:00:35;;;;;;;12.30;9.55;;;3.70;99.90;;;;;;4968925;28;20054;-79
2021/03/14 01:03:01;;;;;;;13.45;9.70;;;3.70;99.90;;;;;;4985701;28;20062;-78
2021/03/14 01:05:34;;;;;;;15.38;9.00;;;3.70;99.90;;;;;;4968770;28;20211;-80
2021/03/14 01:08:01;;;;;;;11.40;7.68;;;3.80;99.90;;;;;;4984165;28;20070;-77
2021/03/14 01:10:29;;;;;;;9.93;8.30;;;3.80;99.90;;;;;;4983435;28;20047;-77
2021/03/14 01:12:55;;;;;;;10.23;7.28;;;3.70;99.90;;;;;;4984697;28;20077;-76
2021/03/14 01:15:25;;;;;;;11.95;8.40;;;3.80;99.90;;;;;;4995416;28;20080;-77
2021/03/14 01:17:56;;;;;;;8.48;7.03;;;3.70;99.90;;;;;;4968280;28;20046;-77
2021/03/14 01:20:22;;;;;;;9.98;8.35;;;3.80;99.90;;;;;;4953724;28;20054;-77
2021/03/14 01:22:49;;;;;;;8.07;6.85;;;3.80;99.90;;;;;;4987390;28;20062;-78
2021/03/14 01:25:16;;;;;;;14.18;7.47;;;3.80;99.90;;;;;;4971597;28;20047;-77
2021/03/14 01:27:46;;;;;;;8.07;6.95;;;3.80;99.90;;;;;;5020951;28;20049;-77
2021/03/14 01:30:15;;;;;;;11.73;7.70;;;3.80;99.90;;;;;;5003442;28;20538;-78
2021/03/14 01:32:46;;;;;;;8.63;7.05;;;3.70;99.90;;;;;;4994681;28;20498;-78
2021/03/14 01:35:13;;;;;;;9.65;6.88;;;3.80;99.90;;;;;;5019708;28;20042;-77
2021/03/14 01:37:40;;;;;;;12.05;6.40;;;3.80;99.90;;;;;;4988101;28;20058;-77
2021/03/14 01:40:08;;;;;;;15.75;8.05;;;3.80;99.90;;;;;;4989086;28;20054;-78
2021/03/14 01:42:34;;;;;;;11.68;6.22;;;3.80;99.90;;;;;;4988099;28;20420;-77
2021/03/14 01:45:02;;;;;;;7.10;6.40;;;3.80;99.90;;;;;;5004507;28;20058;-78
2021/03/14 01:47:41;;;;;;;10.25;6.35;;;3.80;99.90;;;;;;4988396;28;20509;-78
2021/03/14 01:50:14;;;;;;;13.40;7.90;;;3.80;99.90;;;;;;4987940;28;20065;-78
2021/03/14 01:52:43;;;;;;;9.10;6.68;;;3.80;99.90;;;;;;4984767;28;20078;-77
2021/03/14 01:55:10;;;;;;;14.95;7.15;;;3.80;99.90;;;;;;4944396;28;20046;-78
2021/03/14 01:57:37;;;;;;;11.82;6.43;;;3.80;99.90;;;;;;4984259;28;20174;-78
2021/03/14 02:00:09;;;;;;;16.65;7.20;;;3.80;99.90;;;;;;4970872;28;20458;-78
2021/03/14 02:02:39;;;;;;;13.27;7.35;;;3.80;99.90;;;;;;4988143;28;20058;-79
2021/03/14 02:05:08;;;;;;;9.77;6.47;;;3.80;99.90;;;;;;5003749;28;20050;-77
2021/03/14 02:07:36;;;;;;;11.80;6.80;;;3.80;99.90;;;;;;4986778;28;20050;-79
2021/03/14 02:10:05;;;;;;;10.60;6.70;;;3.80;99.90;;;;;;4985773;28;20046;-79
2021/03/14 02:12:39;;;;;;;12.90;7.15;;;3.80;99.90;;;;;;4986385;28;20042;-79
2021/03/14 02:15:06;;;;;;;12.27;6.65;;;3.80;99.90;;;;;;4984545;28;20052;-78
2021/03/14 02:17:35;;;;;;;18.77;7.57;;;3.80;99.90;;;;;;4989844;28;20050;-79
2021/03/14 02:20:18;;;;;;;14.13;7.50;;;3.80;99.90;;;;;;4987678;28;20567;-78
2021/03/14 02:22:47;;;;;;;13.35;7.07;;;3.80;99.90;;;;;;4970384;28;20078;-78
2021/03/14 02:25:22;;;;;;;7.82;5.93;;;3.80;99.90;;;;;;4985185;28;20046;-81
2021/03/14 02:27:49;;;;;;;14.55;6.93;;;3.80;99.90;;;;;;4982914;28;20332;-78
2021/03/14 02:30:17;;;;;;;11.13;6.47;;;3.80;99.90;;;;;;4987768;28;20428;-78
2021/03/14 02:32:45;;;;;;;11.88;6.85;;;3.80;99.90;;;;;;4971207;28;20054;-77
2021/03/14 02:35:12;;;;;;;7.07;5.60;;;3.80;99.90;;;;;;4985264;28;20124;-78
2021/03/14 02:37:41;;;;;;;9.55;6.47;;;3.80;99.90;;;;;;4986185;28;20051;-77
2021/03/14 02:40:09;;;;;;;8.40;6.07;;;3.80;99.90;;;;;;4967644;28;20154;-77
2021/03/14 02:42:38;;;;;;;10.20;6.93;;;3.80;99.90;;;;;;5002850;28;20054;-79
2021/03/14 02:45:06;;;;;;;9.18;6.78;;;3.80;99.90;;;;;;4992498;28;20060;-78
2021/03/14 02:47:32;;;;;;;15.50;7.57;;;3.80;99.90;;;;;;4991128;28;20491;-78
2021/03/14 02:50:13;;;;;;;11.13;7.20;;;3.80;99.90;;;;;;5003551;28;20062;-78
2021/03/14 02:52:40;;;;;;;9.57;7.68;;;3.80;99.90;;;;;;5016180;28;20043;-77
2021/03/14 02:55:08;;;;;;;11.88;7.97;;;3.80;99.90;;;;;;4954605;28;20061;-79
2021/03/14 02:57:35;;;;;;;19.67;8.48;;;3.80;99.90;;;;;;4986513;28;20078;-78
2021/03/14 03:00:03;;;;;;;13.68;8.40;;;3.80;99.90;;;;;;4986545;28;20112;-78
2021/03/14 03:02:30;;;;;;;20.05;9.43;;;3.70;99.90;;;;;;4971920;28;20057;-79
2021/03/14 03:04:57;;;;;;;14.65;9.45;;;3.70;99.90;;;;;;5006983;28;20050;-81
2021/03/14 03:07:24;;;;;;;15.60;9.95;;;3.80;99.90;;;;;;4991778;28;20050;-79
2021/03/14 03:09:52;;;;;;;15.68;9.93;;;3.70;99.90;;;;;;4990897;28;20207;-79
2021/03/14 03:12:23;;;;;;;19.05;9.73;;;3.70;99.90;;;;;;4989570;28;20042;-78
2021/03/14 03:14:51;;;;;;;16.70;9.68;;;3.80;99.90;;;;;;4992287;28;20462;-78
2021/03/14 03:17:22;;;;;;;14.10;9.65;;;3.70;99.90;;;;;;4989424;28;20491;-78
2021/03/14 03:19:49;;;;;;;18.27;10.18;;;3.70;99.90;;;;;;4979817;28;20070;-77
2021/03/14 03:22:15;;;;;;;28.17;11.63;;;3.70;99.90;;;;;;5020032;28;20046;-79
2021/03/14 03:24:42;;;;;;;18.65;10.65;;;3.70;99.90;;;;;;4973510;28;20056;-80
2021/03/14 03:27:09;;;;;;;24.45;10.35;;;3.70;99.90;;;;;;4970678;28;20050;-77
2021/03/14 03:29:35;;;;;;;18.67;10.93;;;3.70;99.90;;;;;;4985910;28;20402;-78
2021/03/14 03:32:02;;;;;;;19.92;10.65;;;3.60;99.90;;;;;;4987294;28;20077;-78
2021/03/14 03:34:28;;;;;;;20.45;11.05;;;3.60;99.90;;;;;;4985967;28;20077;-77
2021/03/14 03:36:55;;;;;;;23.63;10.85;;;3.60;99.90;;;;;;4984887;28;20058;-77
2021/03/14 03:39:21;;;;;;;19.20;10.45;;;3.70;99.90;;;;;;4985569;28;20073;-79
2021/03/14 03:41:51;;;;;;;20.75;9.80;;;3.70;99.90;;;;;;4978544;28;20140;-79
2021/03/14 03:44:20;;;;;;;17.20;10.30;;;3.60;99.90;;;;;;4984669;28;20434;-78
2021/03/14 03:46:50;;;;;;;21.55;10.43;;;3.60;99.90;;;;;;4969003;28;20229;-78
2021/03/14 03:49:21;;;;;;;16.08;9.77;;;3.60;99.90;;;;;;5002175;28;20061;-77
2021/03/14 03:51:50;;;;;;;16.15;9.77;;;3.60;99.90;;;;;;4969009;28;20050;-79
2021/03/14 03:54:17;;;;;;;24.15;9.65;;;3.60;99.90;;;;;;4993141;28;20121;-78
2021/03/14 03:56:44;;;;;;;13.25;8.27;;;3.60;99.90;;;;;;4986970;28;20038;-79
2021/03/14 03:59:11;;;;;;;14.40;10.25;;;3.60;99.90;;;;;;4969670;28;20069;-78
2021/03/14 04:01:40;;;;;;;14.50;8.68;;;3.60;99.90;;;;;;4968948;28;20053;-79
2021/03/14 04:04:08;;;;;;;15.13;8.82;;;3.60;99.90;;;;;;4984396;28;20070;-77
2021/03/14 04:06:36;;;;;;;15.57;8.73;;;3.60;99.90;;;;;;4945163;28;20065;-78
2021/03/14 04:09:03;;;;;;;21.13;8.73;;;3.60;99.90;;;;;;5001601;28;20082;-77
2021/03/14 04:11:30;;;;;;;18.38;7.75;;;3.60;99.90;;;;;;4981569;28;20068;-78
2021/03/14 04:13:57;;;;;;;13.70;8.25;;;3.60;99.90;;;;;;4952644;28;20136;-78
2021/03/14 04:16:24;;;;;;;16.88;8.50;;;3.60;99.90;;;;;;4983980;28;20053;-78
2021/03/14 04:18:52;;;;;;;16.63;9.35;;;3.60;99.90;;;;;;4969257;28;20625;-78
2021/03/14 04:21:19;;;;;;;20.30;9.02;;;3.60;99.90;;;;;;4984936;28;20169;-78
2021/03/14 04:23:49;;;;;;;14.35;7.75;;;3.60;99.90;;;;;;5001264;28;20141;-78
2021/03/14 04:26:20;;;;;;;16.85;8.40;;;3.60;99.90;;;;;;4984389;28;20054;-77
2021/03/14 04:28:48;;;;;;;17.83;9.95;;;3.60;99.90;;;;;;4981908;28;20540;-78
2021/03/14 04:31:16;;;;;;;19.13;8.27;;;3.60;99.90;;;;;;4965319;28;20059;-77
2021/03/14 04:33:44;;;;;;;17.50;8.90;;;3.60;99.90;;;;;;4966704;28;20097;-78
2021/03/14 04:36:11;;;;;;;21.27;8.75;;;3.60;99.90;;;;;;4984572;28;20047;-77
2021/03/14 04:38:46;;;;;;;26.42;9.38;;;3.70;99.90;;;;;;4985078;28;20054;-78
2021/03/14 04:41:13;;;;;;;19.23;9.43;;;3.70;99.90;;;;;;4994087;28;20065;-79
2021/03/14 04:43:41;;;;;;;19.80;8.98;;;3.70;99.90;;;;;;4986342;28;20064;-78
2021/03/14 04:46:11;;;;;;;19.52;9.38;;;3.60;99.90;;;;;;5001177;28;20146;-77
2021/03/14 04:48:38;;;;;;;21.95;9.32;;;3.60;99.90;;;;;;4985103;28;20057;-78
2021/03/14 04:51:06;;;;;;;14.27;8.98;;;3.60;99.90;;;;;;4985147;28;20478;-78
2021/03/14 04:53:34;;;;;;;17.58;9.57;;;3.60;99.90;;;;;;4998502;28;20654;-78
2021/03/14 04:56:01;;;;;;;14.35;8.88;;;3.60;99.90;;;;;;4988537;28;20050;-78
2021/03/14 04:58:28;;;;;;;26.20;10.65;;;3.60;99.90;;;;;;4989334;28;20475;-77
2021/03/14 05:00:56;;;;;;;22.98;11.50;;;3.60;99.90;;;;;;4988670;28;20101;-78
2021/03/14 05:03:23;;;;;;;20.50;11.68;;;3.60;99.90;;;;;;5005521;28;20626;-78
2021/03/14 05:05:52;;;;;;;22.10;11.80;;;3.60;99.90;;;;;;4972615;28;20054;-79
2021/03/14 05:08:22;;;;;;;25.42;13.43;;;3.60;99.90;;;;;;4972139;28;20046;-78
2021/03/14 05:10:50;;;;;;;26.02;12.95;;;3.60;99.90;;;;;;4988147;28;20209;-78
2021/03/14 05:13:18;;;;;;;27.02;14.23;;;3.50;99.90;;;;;;4973460;28;20060;-79
2021/03/14 05:15:52;;;;;;;19.45;12.75;;;3.50;99.90;;;;;;4954377;28;20130;-78
2021/03/14 05:18:20;;;;;;;25.35;13.75;;;3.50;99.90;;;;;;4987928;28;20069;-78
2021/03/14 05:20:47;;;;;;;29.73;15.10;;;3.50;99.90;;;;;;4988748;28;20671;-78
2021/03/14 05:23:15;;;;;;;34.25;13.98;;;3.50;99.90;;;;;;4970935;28;20142;-78
2021/03/14 05:25:42;;;;;;;26.23;16.00;;;3.50;99.90;;;;;;4987373;28;20447;-78
2021/03/14 05:28:08;;;;;;;30.75;14.73;;;3.50;99.90;;;;;;4988050;28;20058;-78
2021/03/14 05:30:35;;;;;;;21.98;14.70;;;3.50;99.90;;;;;;5003514;28;20057;-79
2021/03/14 05:33:02;;;;;;;27.65;13.93;;;3.50;99.90;;;;;;4987504;28;20404;-79
2021/03/14 05:35:31;;;;;;;27.23;15.18;;;3.50;99.90;;;;;;4988565;28;20123;-79
2021/03/14 05:37:59;;;;;;;32.58;15.57;;;3.50;99.90;;;;;;4990437;28;20054;-79
2021/03/14 05:40:27;;;;;;;25.15;15.50;;;3.50;99.90;;;;;;4973446;28;20052;-79
2021/03/14 05:42:54;;;;;;;35.95;17.27;;;3.50;99.90;;;;;;4976197;28;20641;-79
2021/03/14 05:45:21;;;;;;;28.40;15.77;;;3.50;99.90;;;;;;5014866;28;20048;-80
2021/03/14 05:47:48;;;;;;;23.35;12.00;;;3.50;99.90;;;;;;4989115;28;20101;-78
2021/03/14 05:50:19;;;;;;;25.92;14.80;;;3.50;99.90;;;;;;4987399;28;20538;-80
2021/03/14 05:52:47;;;;;;;34.67;17.90;;;3.50;99.90;;;;;;4988034;28;20043;-79
2021/03/14 05:55:16;;;;;;;32.95;15.50;;;3.40;99.90;;;;;;4970861;28;20570;-77
2021/03/14 05:57:48;;;;;;;33.40;16.83;;;3.40;99.90;;;;;;4987349;28;20050;-77
2021/03/14 06:00:24;;;;;;;30.67;18.92;;;3.50;99.90;;;;;;4986961;28;20415;-78
2021/03/14 06:02:57;;;;;;;42.05;20.20;;;3.50;99.90;;;;;;5003598;28;20082;-80
2021/03/14 06:05:26;;;;;;;35.80;20.58;;;3.50;99.90;;;;;;4999637;28;20062;-80
2021/03/14 06:07:53;;;;;;;31.30;19.20;;;3.50;99.90;;;;;;4969944;28;20078;-78
2021/03/14 06:10:20;;;;;;;31.10;19.83;;;3.50;99.90;;;;;;4991040;28;20061;-77
2021/03/14 06:12:47;;;;;;;26.60;16.00;;;3.50;99.90;;;;;;4976461;28;20050;-77
2021/03/14 06:15:14;;;;;;;46.85;19.40;;;3.60;99.90;;;;;;5002281;28;20137;-77
2021/03/14 06:17:41;;;;;;;31.05;18.77;;;3.50;99.90;;;;;;4970801;28;20149;-79
2021/03/14 06:20:09;;;;;;;26.70;17.73;;;3.50;99.90;;;;;;4986625;28;20054;-77
2021/03/14 06:22:40;;;;;;;21.77;15.90;;;3.50;99.90;;;;;;4969395;28;20056;-77
2021/03/14 06:25:07;;;;;;;25.58;14.25;;;3.50;99.90;;;;;;5002477;28;20070;-78
2021/03/14 06:27:52;;;;;;;26.42;17.15;;;3.50;99.90;;;;;;5001812;28;20081;-77
2021/03/14 06:30:26;;;;;;;26.67;17.73;;;3.50;99.90;;;;;;4966600;28;20733;-79
2021/03/14 06:33:14;;;;;;;32.00;18.48;;;3.50;99.90;;;;;;4985566;28;20125;-79
2021/03/14 06:35:47;;;;;;;33.33;18.08;;;3.50;99.90;;;;;;4987106;28;20268;-78
2021/03/14 06:38:23;;;;;;;32.90;19.15;;;3.50;99.90;;;;;;4985338;28;20050;-77
2021/03/14 06:40:53;;;;;;;29.15;18.55;;;3.40;99.90;;;;;;4969764;28;20061;-77
2021/03/14 06:43:20;;;;;;;37.55;17.80;;;3.40;99.90;;;;;;4995080;28;20073;-78
2021/03/14 06:45:46;;;;;;;30.45;17.70;;;3.40;99.90;;;;;;4969315;28;20054;-78
2021/03/14 06:48:24;;;;;;;31.75;19.42;;;3.40;99.90;;;;;;4987879;28;20344;-78
2021/03/14 06:50:50;;;;;;;32.20;17.67;;;3.40;99.90;;;;;;5002093;28;20034;-77
2021/03/14 06:53:23;;;;;;;36.10;19.85;;;3.40;99.90;;;;;;4996330;28;20062;-78
2021/03/14 06:55:51;;;;;;;38.75;20.00;;;3.40;99.90;;;;;;4969534;28;20187;-80
2021/03/14 06:58:26;;;;;;;37.45;19.85;;;3.50;99.90;;;;;;4984952;28;20058;-78
2021/03/14 07:01:15;;;;;;;35.53;19.50;;;3.50;99.90;;;;;;4986523;28;20046;-79
2021/03/14 07:03:54;;;;;;;39.85;20.58;;;3.50;99.90;;;;;;4986711;28;20058;-79
2021/03/14 07:06:26;;;;;;;24.92;15.82;;;3.60;99.90;;;;;;5003164;28;20086;-78
2021/03/14 07:09:14;;;;;;;41.17;20.70;;;3.50;99.90;;;;;;5002892;28;20050;-79
2021/03/14 07:11:44;;;;;;;34.47;18.45;;;3.50;99.90;;;;;;4986203;28;20077;-78
2021/03/14 07:14:13;;;;;;;33.70;17.55;;;3.60;99.90;;;;;;4988079;28;20047;-77
2021/03/14 07:16:46;;;;;;;39.05;18.25;;;3.50;99.90;;;;;;4985439;28;20513;-77
2021/03/14 07:19:16;;;;;;;34.15;18.33;;;3.50;99.90;;;;;;4985596;28;20058;-77
2021/03/14 07:21:43;;;;;;;30.13;15.70;;;3.60;99.90;;;;;;4986132;28;20172;-80
2021/03/14 07:24:13;;;;;;;28.98;16.73;;;3.60;99.90;;;;;;5002117;28;20418;-78
2021/03/14 07:26:47;;;;;;;26.02;14.55;;;3.60;99.90;;;;;;4999110;28;20138;-79
2021/03/14 07:29:14;;;;;;;30.07;17.63;;;3.60;99.90;;;;;;4978705;28;20173;-78
2021/03/14 07:31:40;;;;;;;26.85;16.40;;;3.60;99.90;;;;;;4960608;28;20375;-79
2021/03/14 07:34:07;;;;;;;34.92;17.60;;;3.70;99.90;;;;;;4966968;28;20054;-80
2021/03/14 07:36:33;;;;;;;31.60;17.17;;;3.70;99.90;;;;;;4966170;28;20042;-78
2021/03/14 07:39:05;;;;;;;24.65;15.32;;;3.70;99.90;;;;;;4970844;28;20101;-78
2021/03/14 07:41:32;;;;;;;33.67;18.48;;;3.70;99.90;;;;;;4967414;28;20058;-78
2021/03/14 07:44:02;;;;;;;27.92;16.80;;;3.70;99.90;;;;;;4953320;28;20136;-79
2021/03/14 07:46:29;;;;;;;31.48;18.45;;;3.70;99.90;;;;;;4985547;28;20145;-79
2021/03/14 07:49:00;;;;;;;35.50;18.08;;;3.80;99.90;;;;;;4969397;28;20050;-78
2021/03/14 07:51:28;;;;;;;33.13;17.00;;;3.80;99.90;;;;;;4953457;28;20422;-78
2021/03/14 07:54:01;;;;;;;31.73;16.40;;;3.70;99.90;;;;;;4968564;28;20184;-78
2021/03/14 07:56:57;;;;;;;24.55;15.95;;;3.70;99.90;;;;;;5018024;28;20051;-79
2021/03/14 07:59:31;;;;;;;30.85;16.50;;;3.70;99.90;;;;;;4985161;28;20494;-80
2021/03/14 08:02:16;;;;;;;34.50;18.20;;;3.80;99.90;;;;;;4984602;28;20065;-78
2021/03/14 08:05:00;;;;;;;34.25;17.95;;;3.80;99.90;;;;;;5018696;28;20441;-79
2021/03/14 08:07:32;;;;;;;35.92;18.52;;;3.80;99.90;;;;;;5000896;28;20101;-79
2021/03/14 08:10:09;;;;;;;26.48;15.60;;;3.80;99.90;;;;;;5001730;28;20054;-77
2021/03/14 08:12:42;;;;;;;31.30;18.13;;;3.90;99.90;;;;;;5011689;28;20105;-78
2021/03/14 08:15:23;;;;;;;31.05;18.88;;;3.90;99.90;;;;;;5012593;28;20515;-78
2021/03/14 08:17:53;;;;;;;35.72;19.83;;;3.90;99.90;;;;;;5014699;28;20084;-78
2021/03/14 08:20:42;;;;;;;31.90;19.40;;;3.90;99.90;;;;;;4969028;28;20042;-80
2021/03/14 08:23:18;;;;;;;25.90;19.15;;;3.90;99.90;;;;;;4985207;28;20054;-78
2021/03/14 08:25:45;;;;;;;29.17;18.77;;;3.90;99.90;;;;;;4985260;28;20054;-79
2021/03/14 08:28:34;;;;;;;37.33;21.10;;;3.90;99.90;;;;;;4984620;28;20086;-78
2021/03/14 08:31:11;;;;;;;41.55;22.52;;;3.90;99.90;;;;;;4952618;28;20065;-78
2021/03/14 08:33:46;;;;;;;38.00;22.52;;;3.90;99.90;;;;;;4986193;28;20722;-77
2021/03/14 08:36:35;;;;;;;38.72;21.98;;;3.90;99.90;;;;;;4969347;28;20047;-77
2021/03/14 08:39:08;;;;;;;37.38;20.98;;;3.90;99.90;;;;;;5010420;28;20050;-79
2021/03/14 08:41:48;;;;;;;44.25;21.80;;;3.90;99.90;;;;;;4968847;28;20377;-78
2021/03/14 08:44:39;;;;;;;32.17;20.80;;;3.90;99.90;;;;;;4962587;28;20124;-79
2021/03/14 08:47:25;;;;;;;38.15;22.95;;;4.00;99.90;;;;;;4969066;28;20137;-81
2021/03/14 08:50:01;;;;;;;50.63;25.48;;;4.00;99.90;;;;;;5005167;28;20109;-81
2021/03/14 08:52:34;;;;;;;39.30;23.27;;;3.90;99.90;;;;;;5004879;28;20578;-78
2021/03/14 08:55:25;;;;;;;37.22;21.90;;;4.00;99.90;;;;;;4987697;28;20058;-78
2021/03/14 08:57:52;;;;;;;38.22;22.27;;;3.90;99.90;;;;;;4969055;28;20046;-79
2021/03/14 09:00:19;;;;;;;36.65;21.98;;;3.90;99.90;;;;;;4980105;28;20065;-78
2021/03/14 09:02:51;;;;;;;37.08;22.20;;;3.90;99.90;;;;;;4957603;28;20046;-78
2021/03/14 09:05:30;;;;;;;45.22;23.55;;;4.00;99.90;;;;;;4971795;28;20046;-78
2021/03/14 09:08:01;;;;;;;44.38;23.05;;;4.00;99.90;;;;;;4975951;28;20095;-78
2021/03/14 09:10:36;;;;;;;42.80;25.25;;;4.00;99.90;;;;;;4986764;28;20590;-78
2021/03/14 09:13:10;;;;;;;;;;;4.00;99.90;;;;;;4971110;28;20098;-80
2021/03/14 09:15:48;;;;;;;45.08;22.45;;;4.10;99.90;;;;;;5002488;28;20330;-78
2021/03/14 09:18:26;;;;;;;39.22;20.60;;;4.10;99.90;;;;;;4985237;28;20453;-78
2021/03/14 09:20:59;;;;;;;42.97;24.98;;;4.10;99.90;;;;;;4972006;28;20116;-78
2021/03/14 09:23:40;;;;;;;42.25;23.92;;;4.20;99.90;;;;;;4972147;28;20100;-77
2021/03/14 09:26:07;;;;;;;41.75;24.70;;;4.30;99.90;;;;;;4968329;28;20042;-79
2021/03/14 09:28:45;;;;;;;38.72;21.23;;;4.30;99.90;;;;;;4970906;28;20042;-79
2021/03/14 09:31:14;;;;;;;44.55;24.20;;;4.30;99.90;;;;;;4969036;28;20055;-79
2021/03/14 09:33:51;;;;;;;39.25;23.90;;;4.30;99.90;;;;;;5001303;28;20121;-78
2021/03/14 09:36:25;;;;;;;31.80;21.33;;;4.30;99.90;;;;;;4985989;28;20078;-79
2021/03/14 09:38:59;;;;;;;40.38;22.75;;;4.30;99.90;;;;;;4985548;28;20054;-78
2021/03/14 09:41:44;;;;;;;42.88;24.05;;;4.30;99.90;;;;;;4988452;28;20074;-80
2021/03/14 09:44:25;;;;;;;26.95;19.30;;;4.30;99.90;;;;;;4987835;28;20062;-77
2021/03/14 09:47:01;;;;;;;36.85;23.73;;;4.30;99.90;;;;;;4986284;28;20512;-77
2021/03/14 09:50:07;;;;;;;42.85;24.50;;;4.30;99.90;;;;;;4975305;28;20046;-79
2021/03/14 09:52:42;;;;;;;36.38;22.20;;;4.30;99.90;;;;;;4987535;28;20046;-79
2021/03/14 09:55:32;;;;;;;41.78;24.55;;;4.40;99.90;;;;;;4988872;28;20062;-80
2021/03/14 09:57:59;;;;;;;31.65;21.08;;;4.40;99.90;;;;;;4988558;28;20054;-77
2021/03/14 10:00:29;;;;;;;40.35;24.48;;;4.50;99.90;;;;;;5005995;28;20322;-81
2021/03/14 10:03:14;;;;;;;36.50;21.52;;;4.50;99.90;;;;;;4973143;28;20061;-78
2021/03/14 10:05:46;;;;;;;40.38;25.25;;;4.50;99.90;;;;;;4988184;28;20302;-80
2021/03/14 10:08:21;;;;;;;43.55;25.60;;;4.60;99.90;;;;;;4982629;28;20042;-77
2021/03/14 10:10:50;;;;;;;38.97;25.77;;;4.70;99.90;;;;;;4986606;28;20610;-78
2021/03/14 10:13:25;;;;;;;41.58;25.17;;;4.80;99.90;;;;;;4997942;28;20215;-77
2021/03/14 10:15:54;;;;;;;33.10;22.42;;;4.80;99.90;;;;;;5002196;28;20065;-78
2021/03/14 10:18:25;;;;;;;37.35;23.00;;;4.70;99.90;;;;;;5003554;28;20057;-78
2021/03/14 10:21:12;;;;;;;40.35;24.75;;;4.70;99.90;;;;;;4987175;28;20054;-79
2021/03/14 10:23:39;;;;;;;29.20;19.90;;;4.60;99.90;;;;;;4970700;28;20053;-79
2021/03/14 10:26:23;;;;;;;30.23;20.23;;;4.60;99.90;;;;;;4955854;28;20069;-78
2021/03/14 10:29:14;;;;;;;37.90;22.48;;;4.40;99.90;;;;;;4951876;28;20065;-78
2021/03/14 10:32:20;;;;;;;28.63;17.45;;;4.30;99.90;;;;;;4967471;28;20034;-78
2021/03/14 10:34:56;;;;;;;24.48;17.27;;;4.20;99.90;;;;;;4969983;28;20496;-81
2021/03/14 10:37:29;;;;;;;26.88;16.95;;;4.10;99.90;;;;;;4944795;28;20138;-78
2021/03/14 10:40:02;;;;;;;25.67;17.15;;;4.00;99.90;;;;;;4971428;28;20042;-77
2021/03/14 10:42:33;;;;;;;21.73;14.63;;;4.10;99.90;;;;;;4998154;28;20105;-81
2021/03/14 10:45:16;;;;;;;23.20;15.50;;;4.20;99.90;;;;;;4968023;28;20051;-79
2021/03/14 10:47:57;;;;;;;23.95;14.82;;;4.10;99.90;;;;;;4982548;28;20054;-79
2021/03/14 10:50:32;;;;;;;22.70;15.50;;;4.10;99.90;;;;;;5005321;28;20041;-80
2021/03/14 10:53:15;;;;;;;19.90;13.48;;;4.20;99.90;;;;;;4986282;28;20129;-79
2021/03/14 10:56:09;;;;;;;21.15;14.27;;;4.30;99.90;;;;;;5019667;28;20056;-82
2021/03/14 10:58:42;;;;;;;24.50;15.63;;;4.30;99.90;;;;;;4971921;28;20525;-80
2021/03/14 11:01:47;;;;;;;17.92;12.93;;;4.30;99.90;;;;;;5001024;28;20052;-80
2021/03/14 11:04:30;;;;;;;18.10;13.63;;;4.30;99.90;;;;;;5038022;27;1381708;-80
2021/03/14 11:07:27;;;;;;;23.65;15.45;;;4.20;99.90;;;;;;5039346;28;20052;-78
2021/03/14 11:10:10;;;;;;;24.52;15.45;;;4.20;99.90;;;;;;5042558;28;20064;-77
2021/03/14 11:12:43;;;;;;;26.17;15.90;;;4.20;99.90;;;;;;5029753;28;20052;-79
2021/03/14 11:15:26;;;;;;;20.30;15.05;;;4.20;99.90;;;;;;5061961;28;20052;-77
2021/03/14 11:18:04;;;;;;;27.30;17.25;;;4.10;99.90;;;;;;5039062;28;20147;-77
2021/03/14 11:20:54;;;;;;;24.10;15.00;;;4.10;99.90;;;;;;5031126;28;20095;-77
2021/03/14 11:23:20;;;;;;;27.70;15.73;;;4.00;99.90;;;;;;5045828;28;20068;-79
2021/03/14 11:25:47;;;;;;;25.27;15.43;;;4.00;99.90;;;;;;5044586;28;20120;-79
2021/03/14 11:28:16;;;;;;;26.75;17.15;;;4.10;99.90;;;;;;5043330;28;20044;-79
2021/03/14 11:30:44;;;;;;;28.85;16.30;;;4.10;99.90;;;;;;5027466;28;20044;-78
2021/03/14 11:33:12;;;;;;;30.45;18.55;;;4.10;99.90;;;;;;5045263;28;20105;-79
2021/03/14 11:35:50;;;;;;;30.88;19.25;;;4.10;99.90;;;;;;5030158;28;20055;-78
2021/03/14 11:38:32;;;;;;;31.65;21.05;;;4.20;99.90;;;;;;5031769;28;20064;-79
2021/03/14 11:41:08;;;;;;;33.60;20.83;;;4.10;99.90;;;;;;5046631;28;20053;-78
2021/03/14 11:43:55;;;;;;;32.20;19.65;;;4.10;99.90;;;;;;5047624;28;20055;-78
2021/03/14 11:46:24;;;;;;;23.80;16.83;;;4.00;99.90;;;;;;5060557;28;20052;-78
2021/03/14 11:49:09;;;;;;;39.28;20.83;;;4.10;99.90;;;;;;5039268;28;20119;-78
2021/03/14 11:51:36;;;;;;;34.88;18.90;;;4.00;99.90;;;;;;5040643;28;20049;-79
2021/03/14 11:54:12;;;;;;;33.20;19.08;;;4.00;99.90;;;;;;5034796;28;20049;-77
2021/03/14 11:56:52;;;;;;;35.35;20.23;;;3.90;99.90;;;;;;5024177;28;20568;-78
2021/03/14 11:59:23;;;;;;;35.50;20.27;;;3.80;99.90;;;;;;5023394;28;20106;-77
2021/03/14 12:01:56;;;;;;;36.67;20.55;;;3.90;99.90;;;;;;5021679;28;20041;-77
2021/03/14 12:04:29;;;;;;;38.70;21.35;;;3.90;99.90;;;;;;5024077;28;20069;-76
2021/03/14 12:06:56;;;;;;;36.58;19.75;;;3.90;99.90;;;;;;5026106;28;20043;-76
2021/03/14 12:09:31;;;;;;;32.10;18.90;;;3.90;99.90;;;;;;5043233;28;20045;-79
2021/03/14 12:11:59;;;;;;;38.58;22.30;;;3.90;99.90;;;;;;5056669;28;20049;-76
2021/03/14 12:14:26;;;;;;;34.25;21.95;;;3.90;99.90;;;;;;5031880;28;20279;-77
2021/03/14 12:17:01;;;;;;;40.38;22.83;;;4.00;99.90;;;;;;5033782;28;20045;-77
2021/03/14 12:19:57;;;;;;;35.15;19.50;;;4.10;99.90;;;;;;5023823;28;20293;-78
2021/03/14 12:22:32;;;;;;;35.90;23.60;;;4.00;99.90;;;;;;5007055;28;20049;-79
2021/03/14 12:24:59;;;;;;;38.47;22.40;;;4.10;99.90;;;;;;5010305;28;20111;-78
2021/03/14 12:27:26;;;;;;;36.88;21.52;;;4.20;99.90;;;;;;5027961;28;20044;-79
2021/03/14 12:29:53;;;;;;;39.88;22.20;;;4.10;99.90;;;;;;5010651;28;20057;-78
2021/03/14 12:32:24;;;;;;;41.50;22.55;;;4.10;99.90;;;;;;5045297;28;20051;-77
2021/03/14 12:34:51;;;;;;;38.80;23.02;;;4.10;99.90;;;;;;5027788;28;20131;-77
2021/03/14 12:37:24;;;;;;;41.50;24.17;;;4.10;99.90;;;;;;5011569;28;20449;-77
2021/03/14 12:39:58;;;;;;;46.10;23.40;;;4.00;99.90;;;;;;5013699;28;20137;-77
2021/03/14 12:42:25;;;;;;;43.22;23.75;;;4.10;99.90;;;;;;5028744;28;20073;-78
2021/03/14 12:44:56;;;;;;;44.35;22.30;;;4.00;99.90;;;;;;5013025;28;20045;-77
2021/03/14 12:47:24;;;;;;;50.00;24.30;;;4.10;99.90;;;;;;5044264;28;20135;-78
2021/03/14 12:49:52;;;;;;;40.28;23.35;;;4.20;99.90;;;;;;5012942;28;20049;-78
2021/03/14 12:52:19;;;;;;;32.92;20.90;;;4.30;99.90;;;;;;5028497;28;20041;-80
2021/03/14 12:54:46;;;;;;;45.35;22.92;;;4.30;99.90;;;;;;5028664;28;20052;-78
2021/03/14 12:57:26;;;;;;;48.22;23.52;;;4.40;99.90;;;;;;5043951;28;20128;-80
2021/03/14 12:59:53;;;;;;;37.10;22.13;;;4.70;99.90;;;;;;5029482;28;20045;-80
2021/03/14 13:02:19;;;;;;;38.22;23.65;;;4.90;99.90;;;;;;5027993;28;20052;-79
2021/03/14 13:04:46;;;;;;;33.38;21.05;;;4.90;99.90;;;;;;5028261;28;20047;-80